Friday, December 19, 2008

THIS is what I am in for??

This is a video of an oral exam to get your license. I answered about 90% of the questions asked to the student, so I am in the ballpark. Watch, I'll get an examiner with a bad attitude.

It's snowing outside!! YUCK. Today's avation weather is: KBKL 191800Z 00000KT 1 1/4SM BR BKN007 OVC011 02/01 A2955 RMK AO2 UPE1754 CIG 003V009. That means BAD WEATHER.

No comments: